This is the latest recevied weather packets stored in our database for station/object KE0TNI-13. If no packets are shown the sender has not sent any weather packets the latest 1 day(s).
| Time | Temp. | Humidity | Pressure | Rain* | Wind** | Luminosity | Snow |
|---|---|---|---|---|---|---|---|
| 1778084285 | -4.44° C | 89% | 1018.2 hPa | 0 mm | - | 26 W/m² | - |
| 1778083680 | -4.44° C | 88% | 1018.7 hPa | 0 mm | - | 25 W/m² | - |
| 1778080125 | -5° C | 93% | 1018 hPa | 0 mm | - | 12 W/m² | - |
| 1778079518 | -5° C | 93% | 1017.9 hPa | 0 mm | - | 13 W/m² | - |
| 1778077702 | -5° C | 94% | 1017.8 hPa | 0 mm | - | 12 W/m² | - |
| 1778075887 | -5.56° C | 95% | 1017.6 hPa | 0 mm | - | 10 W/m² | - |
| 1778075280 | -5.56° C | 96% | 1017.4 hPa | 0 mm | - | 7 W/m² | - |
| 1778073462 | -5.56° C | 96% | 1017.1 hPa | 0 mm | - | 3 W/m² | - |
| 1778072250 | -5.56° C | 96% | 1017 hPa | 0 mm | - | 2 W/m² | - |
| 1778071343 | -6.11° C | 96% | 1016.5 hPa | 0 mm | - | 2 W/m² | - |
| 1778071040 | -6.11° C | 96% | 1016.2 hPa | 0 mm | - | 1 W/m² | - |
| 1778070739 | -6.11° C | 96% | 1016.3 hPa | 0 mm | - | 1 W/m² | - |
| 1778068922 | -6.11° C | 96% | 1016.3 hPa | 0 mm | - | 0 W/m² | - |
| 1778068620 | -6.11° C | 96% | 1016.2 hPa | 0 mm | - | 0 W/m² | - |
| 1778068318 | -6.11° C | 96% | 1016.2 hPa | 0 mm | - | 0 W/m² | - |
| 1778067411 | -6.11° C | 96% | 1016.1 hPa | 0 mm | - | 0 W/m² | - |
| 1778067108 | -6.11° C | 96% | 1015.9 hPa | 0 mm | - | 0 W/m² | - |
| 1778066502 | -6.11° C | 96% | 1015.8 hPa | 0 mm | - | 0 W/m² | - |
| 1778065594 | -6.11° C | 96% | 1016.1 hPa | 0 mm | - | 0 W/m² | - |
| 1778064685 | -6.11° C | 96% | 1015.7 hPa | 0 mm | - | 0 W/m² | - |
| 1778064383 | -6.11° C | 96% | 1016.1 hPa | 0 mm | - | 0 W/m² | - |
| 1778064080 | -6.11° C | 96% | 1016.3 hPa | 0 mm | - | 0 W/m² | - |
| 1778063474 | -6.11° C | 96% | 1016.1 hPa | 0 mm | - | 0 W/m² | - |
| 1778062263 | -6.11° C | 96% | 1016.1 hPa | 0 mm | - | 0 W/m² | - |
| 1778061659 | -6.11° C | 96% | 1016.3 hPa | 0 mm | - | 0 W/m² | - |
* Rain latest hour (hover to see other rain measurements)
** Current wind speed in m/s (hover to see current wind gust speed)